sensor_id;sensor_type;location;lat;lon;timestamp;P1;durP1;ratioP1;P2;durP2;ratioP2
20832;SDS011;56075;51.264;7.150;2023-05-17T00:01:31;4.77;;;1.40;;
20832;SDS011;56075;51.264;7.150;2023-05-17T00:04:02;5.13;;;1.83;;
20832;SDS011;56075;51.264;7.150;2023-05-17T00:06:33;7.67;;;1.60;;
20832;SDS011;56075;51.264;7.150;2023-05-17T00:09:05;5.40;;;1.80;;
20832;SDS011;56075;51.264;7.150;2023-05-17T00:11:37;4.07;;;1.80;;
20832;SDS011;56075;51.264;7.150;2023-05-17T00:14:08;5.20;;;1.80;;
20832;SDS011;56075;51.264;7.150;2023-05-17T00:16:39;7.47;;;1.60;;
20832;SDS011;56075;51.264;7.150;2023-05-17T00:19:10;5.43;;;1.80;;
20832;SDS011;56075;51.264;7.150;2023-05-17T00:21:41;3.73;;;1.67;;
20832;SDS011;56075;51.264;7.150;2023-05-17T00:24:13;8.00;;;1.73;;
20832;SDS011;56075;51.264;7.150;2023-05-17T00:26:44;5.40;;;1.73;;
20832;SDS011;56075;51.264;7.150;2023-05-17T00:29:15;8.97;;;2.13;;
20832;SDS011;56075;51.264;7.150;2023-05-17T00:31:46;6.13;;;2.10;;
20832;SDS011;56075;51.264;7.150;2023-05-17T00:34:17;8.90;;;2.03;;
20832;SDS011;56075;51.264;7.150;2023-05-17T00:36:48;8.10;;;2.27;;
20832;SDS011;56075;51.264;7.150;2023-05-17T00:39:19;8.23;;;2.20;;
20832;SDS011;56075;51.264;7.150;2023-05-17T00:41:51;6.50;;;2.10;;
20832;SDS011;56075;51.264;7.150;2023-05-17T00:44:22;7.27;;;2.00;;
20832;SDS011;56075;51.264;7.150;2023-05-17T00:46:53;6.57;;;2.20;;
20832;SDS011;56075;51.264;7.150;2023-05-17T00:49:25;7.33;;;2.03;;
20832;SDS011;56075;51.264;7.150;2023-05-17T00:51:56;6.87;;;1.83;;
20832;SDS011;56075;51.264;7.150;2023-05-17T00:54:28;9.10;;;2.30;;
20832;SDS011;56075;51.264;7.150;2023-05-17T00:57:00;7.47;;;2.13;;
20832;SDS011;56075;51.264;7.150;2023-05-17T00:59:32;11.27;;;2.43;;
20832;SDS011;56075;51.264;7.150;2023-05-17T01:02:03;6.90;;;2.50;;
20832;SDS011;56075;51.264;7.150;2023-05-17T01:04:35;11.63;;;2.60;;
20832;SDS011;56075;51.264;7.150;2023-05-17T01:07:08;6.77;;;2.30;;
20832;SDS011;56075;51.264;7.150;2023-05-17T01:09:41;6.73;;;2.30;;
20832;SDS011;56075;51.264;7.150;2023-05-17T01:15:07;5.97;;;2.33;;
20832;SDS011;56075;51.264;7.150;2023-05-17T01:17:53;12.10;;;2.40;;
20832;SDS011;56075;51.264;7.150;2023-05-17T01:20:42;5.77;;;2.70;;
20832;SDS011;56075;51.264;7.150;2023-05-17T01:28:46;8.73;;;3.30;;
20832;SDS011;56075;51.264;7.150;2023-05-17T01:31:21;11.73;;;2.73;;
20832;SDS011;56075;51.264;7.150;2023-05-17T01:33:54;12.10;;;2.80;;
20832;SDS011;56075;51.264;7.150;2023-05-17T01:36:27;8.87;;;2.80;;
20832;SDS011;56075;51.264;7.150;2023-05-17T01:38:58;9.40;;;3.20;;
20832;SDS011;56075;51.264;7.150;2023-05-17T01:41:32;11.30;;;3.07;;
20832;SDS011;56075;51.264;7.150;2023-05-17T01:46:41;10.93;;;3.20;;
20832;SDS011;56075;51.264;7.150;2023-05-17T01:52:25;13.20;;;2.83;;
20832;SDS011;56075;51.264;7.150;2023-05-17T01:57:38;10.10;;;3.50;;
20832;SDS011;56075;51.264;7.150;2023-05-17T02:00:11;13.30;;;2.97;;
20832;SDS011;56075;51.264;7.150;2023-05-17T02:02:45;12.57;;;3.40;;
20832;SDS011;56075;51.264;7.150;2023-05-17T02:05:17;15.83;;;3.80;;
20832;SDS011;56075;51.264;7.150;2023-05-17T02:07:48;12.23;;;3.87;;
20832;SDS011;56075;51.264;7.150;2023-05-17T02:10:21;12.03;;;3.53;;
20832;SDS011;56075;51.264;7.150;2023-05-17T02:12:52;15.23;;;3.70;;
20832;SDS011;56075;51.264;7.150;2023-05-17T02:15:24;18.60;;;3.70;;
20832;SDS011;56075;51.264;7.150;2023-05-17T02:17:55;14.33;;;3.90;;
20832;SDS011;56075;51.264;7.150;2023-05-17T02:20:27;10.53;;;3.90;;
20832;SDS011;56075;51.264;7.150;2023-05-17T02:22:58;16.47;;;4.13;;
20832;SDS011;56075;51.264;7.150;2023-05-17T02:25:30;17.37;;;4.27;;
20832;SDS011;56075;51.264;7.150;2023-05-17T02:28:03;13.23;;;4.80;;
20832;SDS011;56075;51.264;7.150;2023-05-17T02:30:34;20.00;;;4.60;;
20832;SDS011;56075;51.264;7.150;2023-05-17T02:33:05;14.67;;;3.97;;
20832;SDS011;56075;51.264;7.150;2023-05-17T02:35:37;14.50;;;4.47;;
20832;SDS011;56075;51.264;7.150;2023-05-17T02:38:08;15.00;;;4.20;;
20832;SDS011;56075;51.264;7.150;2023-05-17T02:40:40;15.07;;;4.43;;
20832;SDS011;56075;51.264;7.150;2023-05-17T02:43:11;15.10;;;4.30;;
20832;SDS011;56075;51.264;7.150;2023-05-17T02:45:42;20.20;;;4.80;;
20832;SDS011;56075;51.264;7.150;2023-05-17T02:48:16;15.63;;;4.43;;
20832;SDS011;56075;51.264;7.150;2023-05-17T02:50:48;17.83;;;4.53;;
20832;SDS011;56075;51.264;7.150;2023-05-17T02:53:19;13.67;;;4.00;;
20832;SDS011;56075;51.264;7.150;2023-05-17T02:55:50;15.13;;;4.23;;
20832;SDS011;56075;51.264;7.150;2023-05-17T02:58:22;15.47;;;4.83;;
20832;SDS011;56075;51.264;7.150;2023-05-17T03:00:54;16.23;;;4.13;;
20832;SDS011;56075;51.264;7.150;2023-05-17T03:03:25;17.63;;;4.40;;
20832;SDS011;56075;51.264;7.150;2023-05-17T03:06:00;13.30;;;4.60;;
20832;SDS011;56075;51.264;7.150;2023-05-17T03:08:32;12.03;;;4.03;;
20832;SDS011;56075;51.264;7.150;2023-05-17T03:11:05;14.57;;;4.67;;
20832;SDS011;56075;51.264;7.150;2023-05-17T03:13:36;14.90;;;4.63;;
20832;SDS011;56075;51.264;7.150;2023-05-17T03:16:07;12.60;;;4.80;;
20832;SDS011;56075;51.264;7.150;2023-05-17T03:18:39;18.03;;;4.80;;
20832;SDS011;56075;51.264;7.150;2023-05-17T03:21:11;17.87;;;4.67;;
20832;SDS011;56075;51.264;7.150;2023-05-17T03:23:43;17.60;;;5.17;;
20832;SDS011;56075;51.264;7.150;2023-05-17T03:26:14;17.67;;;5.17;;
20832;SDS011;56075;51.264;7.150;2023-05-17T03:28:50;18.00;;;5.53;;
20832;SDS011;56075;51.264;7.150;2023-05-17T03:31:22;21.70;;;6.03;;
20832;SDS011;56075;51.264;7.150;2023-05-17T03:33:54;19.80;;;6.57;;
20832;SDS011;56075;51.264;7.150;2023-05-17T03:36:26;28.10;;;6.77;;
20832;SDS011;56075;51.264;7.150;2023-05-17T03:38:57;25.53;;;7.80;;
20832;SDS011;56075;51.264;7.150;2023-05-17T03:41:29;22.23;;;6.90;;
20832;SDS011;56075;51.264;7.150;2023-05-17T03:44:02;25.87;;;8.43;;
20832;SDS011;56075;51.264;7.150;2023-05-17T03:46:34;23.90;;;7.77;;
20832;SDS011;56075;51.264;7.150;2023-05-17T03:49:06;28.47;;;9.47;;
20832;SDS011;56075;51.264;7.150;2023-05-17T03:51:38;25.43;;;8.90;;
20832;SDS011;56075;51.264;7.150;2023-05-17T03:54:09;26.63;;;8.23;;
20832;SDS011;56075;51.264;7.150;2023-05-17T03:56:40;26.40;;;8.87;;
20832;SDS011;56075;51.264;7.150;2023-05-17T03:59:16;25.07;;;9.23;;
20832;SDS011;56075;51.264;7.150;2023-05-17T04:01:47;33.77;;;9.90;;
20832;SDS011;56075;51.264;7.150;2023-05-17T04:04:18;23.03;;;8.83;;
20832;SDS011;56075;51.264;7.150;2023-05-17T04:06:50;28.73;;;8.90;;
20832;SDS011;56075;51.264;7.150;2023-05-17T04:09:21;24.13;;;8.67;;
20832;SDS011;56075;51.264;7.150;2023-05-17T04:11:52;27.23;;;9.10;;
20832;SDS011;56075;51.264;7.150;2023-05-17T04:14:24;32.50;;;11.03;;
20832;SDS011;56075;51.264;7.150;2023-05-17T04:16:55;31.03;;;10.63;;
20832;SDS011;56075;51.264;7.150;2023-05-17T04:19:26;33.23;;;11.00;;
20832;SDS011;56075;51.264;7.150;2023-05-17T04:21:58;28.13;;;10.47;;
20832;SDS011;56075;51.264;7.150;2023-05-17T04:24:31;29.63;;;11.20;;
20832;SDS011;56075;51.264;7.150;2023-05-17T04:27:02;28.63;;;9.70;;
20832;SDS011;56075;51.264;7.150;2023-05-17T04:29:35;35.83;;;9.90;;
20832;SDS011;56075;51.264;7.150;2023-05-17T04:32:06;30.43;;;10.27;;
20832;SDS011;56075;51.264;7.150;2023-05-17T04:34:38;28.90;;;9.93;;
20832;SDS011;56075;51.264;7.150;2023-05-17T04:37:12;28.10;;;10.90;;
20832;SDS011;56075;51.264;7.150;2023-05-17T04:39:43;33.53;;;11.27;;
20832;SDS011;56075;51.264;7.150;2023-05-17T04:42:15;33.57;;;10.50;;
20832;SDS011;56075;51.264;7.150;2023-05-17T04:44:52;27.90;;;10.50;;
20832;SDS011;56075;51.264;7.150;2023-05-17T04:47:23;29.20;;;10.80;;
20832;SDS011;56075;51.264;7.150;2023-05-17T04:49:56;30.50;;;10.23;;
20832;SDS011;56075;51.264;7.150;2023-05-17T04:52:28;33.75;;;10.63;;
20832;SDS011;56075;51.264;7.150;2023-05-17T04:54:59;39.13;;;13.23;;
20832;SDS011;56075;51.264;7.150;2023-05-17T04:57:32;40.63;;;13.50;;
20832;SDS011;56075;51.264;7.150;2023-05-17T05:00:07;36.23;;;13.53;;
20832;SDS011;56075;51.264;7.150;2023-05-17T05:02:44;37.00;;;13.43;;
20832;SDS011;56075;51.264;7.150;2023-05-17T05:05:17;35.37;;;13.80;;
20832;SDS011;56075;51.264;7.150;2023-05-17T05:07:50;41.60;;;14.60;;
20832;SDS011;56075;51.264;7.150;2023-05-17T05:10:21;43.27;;;14.83;;
20832;SDS011;56075;51.264;7.150;2023-05-17T05:12:53;46.47;;;14.87;;
20832;SDS011;56075;51.264;7.150;2023-05-17T05:15:24;40.07;;;14.83;;
20832;SDS011;56075;51.264;7.150;2023-05-17T05:18:00;36.83;;;14.27;;
20832;SDS011;56075;51.264;7.150;2023-05-17T05:20:33;38.07;;;14.20;;
20832;SDS011;56075;51.264;7.150;2023-05-17T05:23:07;37.93;;;13.37;;
20832;SDS011;56075;51.264;7.150;2023-05-17T05:25:42;36.20;;;13.77;;
20832;SDS011;56075;51.264;7.150;2023-05-17T05:28:15;34.40;;;12.63;;
20832;SDS011;56075;51.264;7.150;2023-05-17T05:30:46;26.77;;;12.50;;
20832;SDS011;56075;51.264;7.150;2023-05-17T05:33:18;28.23;;;11.57;;
20832;SDS011;56075;51.264;7.150;2023-05-17T05:35:51;27.75;;;10.75;;
20832;SDS011;56075;51.264;7.150;2023-05-17T05:38:22;26.35;;;10.80;;
20832;SDS011;56075;51.264;7.150;2023-05-17T05:40:53;30.02;;;10.82;;
20832;SDS011;56075;51.264;7.150;2023-05-17T05:43:24;24.10;;;9.63;;
20832;SDS011;56075;51.264;7.150;2023-05-17T05:45:56;31.10;;;10.48;;
20832;SDS011;56075;51.264;7.150;2023-05-17T05:48:27;23.37;;;9.47;;
20832;SDS011;56075;51.264;7.150;2023-05-17T05:50:58;27.08;;;8.85;;
20832;SDS011;56075;51.264;7.150;2023-05-17T05:53:29;25.93;;;9.40;;
20832;SDS011;56075;51.264;7.150;2023-05-17T05:56:01;30.17;;;8.27;;
20832;SDS011;56075;51.264;7.150;2023-05-17T05:58:32;20.23;;;8.80;;
20832;SDS011;56075;51.264;7.150;2023-05-17T06:01:05;19.63;;;7.27;;
20832;SDS011;56075;51.264;7.150;2023-05-17T06:03:36;23.70;;;7.03;;
20832;SDS011;56075;51.264;7.150;2023-05-17T06:06:07;21.30;;;6.67;;
20832;SDS011;56075;51.264;7.150;2023-05-17T06:08:39;23.70;;;6.23;;
20832;SDS011;56075;51.264;7.150;2023-05-17T06:11:12;23.50;;;6.00;;
20832;SDS011;56075;51.264;7.150;2023-05-17T06:13:43;14.15;;;4.90;;
20832;SDS011;56075;51.264;7.150;2023-05-17T06:16:15;17.70;;;4.90;;
20832;SDS011;56075;51.264;7.150;2023-05-17T06:18:46;14.87;;;4.23;;
20832;SDS011;56075;51.264;7.150;2023-05-17T06:21:17;16.77;;;4.00;;
20832;SDS011;56075;51.264;7.150;2023-05-17T06:23:48;15.53;;;4.20;;
20832;SDS011;56075;51.264;7.150;2023-05-17T06:26:19;11.77;;;3.87;;
20832;SDS011;56075;51.264;7.150;2023-05-17T06:28:50;11.47;;;3.30;;
20832;SDS011;56075;51.264;7.150;2023-05-17T06:31:22;17.27;;;3.20;;
20832;SDS011;56075;51.264;7.150;2023-05-17T06:33:53;17.30;;;2.87;;
20832;SDS011;56075;51.264;7.150;2023-05-17T06:36:25;12.87;;;2.77;;
20832;SDS011;56075;51.264;7.150;2023-05-17T06:38:56;11.43;;;2.70;;
20832;SDS011;56075;51.264;7.150;2023-05-17T06:41:27;15.60;;;2.80;;
20832;SDS011;56075;51.264;7.150;2023-05-17T06:43:58;11.57;;;2.53;;
20832;SDS011;56075;51.264;7.150;2023-05-17T06:46:29;15.53;;;2.27;;
20832;SDS011;56075;51.264;7.150;2023-05-17T06:49:00;13.07;;;1.93;;
20832;SDS011;56075;51.264;7.150;2023-05-17T06:51:31;14.30;;;2.20;;
20832;SDS011;56075;51.264;7.150;2023-05-17T06:54:02;7.57;;;1.98;;
20832;SDS011;56075;51.264;7.150;2023-05-17T06:56:34;8.02;;;1.50;;
20832;SDS011;56075;51.264;7.150;2023-05-17T06:59:05;10.10;;;2.10;;
20832;SDS011;56075;51.264;7.150;2023-05-17T07:01:36;15.02;;;2.40;;
20832;SDS011;56075;51.264;7.150;2023-05-17T07:04:07;9.83;;;1.93;;
20832;SDS011;56075;51.264;7.150;2023-05-17T07:06:38;14.23;;;1.90;;
20832;SDS011;56075;51.264;7.150;2023-05-17T07:09:09;11.53;;;1.90;;
20832;SDS011;56075;51.264;7.150;2023-05-17T07:11:40;9.85;;;2.22;;
20832;SDS011;56075;51.264;7.150;2023-05-17T07:14:13;12.88;;;2.20;;
20832;SDS011;56075;51.264;7.150;2023-05-17T07:16:44;14.60;;;1.90;;
20832;SDS011;56075;51.264;7.150;2023-05-17T07:19:15;10.23;;;1.70;;
20832;SDS011;56075;51.264;7.150;2023-05-17T07:21:46;5.93;;;1.63;;
20832;SDS011;56075;51.264;7.150;2023-05-17T07:24:17;11.43;;;2.10;;
20832;SDS011;56075;51.264;7.150;2023-05-17T07:26:49;10.33;;;1.70;;
20832;SDS011;56075;51.264;7.150;2023-05-17T07:29:20;10.77;;;1.57;;
20832;SDS011;56075;51.264;7.150;2023-05-17T07:31:51;13.35;;;1.90;;
20832;SDS011;56075;51.264;7.150;2023-05-17T07:34:22;13.38;;;2.40;;
20832;SDS011;56075;51.264;7.150;2023-05-17T07:36:53;12.40;;;1.70;;
20832;SDS011;56075;51.264;7.150;2023-05-17T07:39:24;11.13;;;1.63;;
20832;SDS011;56075;51.264;7.150;2023-05-17T07:41:56;9.55;;;1.48;;
20832;SDS011;56075;51.264;7.150;2023-05-17T07:44:27;10.50;;;1.83;;
20832;SDS011;56075;51.264;7.150;2023-05-17T07:46:58;8.98;;;1.35;;
20832;SDS011;56075;51.264;7.150;2023-05-17T07:49:29;8.52;;;1.50;;
20832;SDS011;56075;51.264;7.150;2023-05-17T07:52:01;12.27;;;1.83;;
20832;SDS011;56075;51.264;7.150;2023-05-17T07:54:33;16.58;;;1.77;;
20832;SDS011;56075;51.264;7.150;2023-05-17T07:57:04;18.13;;;2.60;;
20832;SDS011;56075;51.264;7.150;2023-05-17T07:59:36;12.80;;;2.40;;
20832;SDS011;56075;51.264;7.150;2023-05-17T08:02:07;7.93;;;1.63;;
20832;SDS011;56075;51.264;7.150;2023-05-17T08:04:39;9.63;;;1.60;;
20832;SDS011;56075;51.264;7.150;2023-05-17T08:07:11;11.80;;;1.98;;
20832;SDS011;56075;51.264;7.150;2023-05-17T08:09:42;14.40;;;2.05;;
20832;SDS011;56075;51.264;7.150;2023-05-17T08:12:14;14.35;;;2.53;;
20832;SDS011;56075;51.264;7.150;2023-05-17T08:14:45;8.75;;;2.42;;
20832;SDS011;56075;51.264;7.150;2023-05-17T08:17:17;13.57;;;2.95;;
20832;SDS011;56075;51.264;7.150;2023-05-17T08:19:49;12.23;;;2.67;;
20832;SDS011;56075;51.264;7.150;2023-05-17T08:22:20;9.82;;;2.30;;
20832;SDS011;56075;51.264;7.150;2023-05-17T08:24:51;13.20;;;2.35;;
20832;SDS011;56075;51.264;7.150;2023-05-17T08:27:22;8.45;;;1.90;;
20832;SDS011;56075;51.264;7.150;2023-05-17T08:29:55;8.27;;;2.20;;
20832;SDS011;56075;51.264;7.150;2023-05-17T08:32:27;8.95;;;2.58;;
20832;SDS011;56075;51.264;7.150;2023-05-17T08:34:58;9.07;;;2.53;;
20832;SDS011;56075;51.264;7.150;2023-05-17T08:37:29;9.10;;;2.08;;
20832;SDS011;56075;51.264;7.150;2023-05-17T08:40:01;5.97;;;1.67;;
20832;SDS011;56075;51.264;7.150;2023-05-17T08:42:33;8.52;;;1.98;;
20832;SDS011;56075;51.264;7.150;2023-05-17T08:45:06;8.02;;;1.92;;
20832;SDS011;56075;51.264;7.150;2023-05-17T08:47:41;9.15;;;1.80;;
20832;SDS011;56075;51.264;7.150;2023-05-17T08:50:13;8.32;;;2.00;;
20832;SDS011;56075;51.264;7.150;2023-05-17T08:52:45;9.30;;;2.00;;
20832;SDS011;56075;51.264;7.150;2023-05-17T08:55:16;10.27;;;2.10;;
20832;SDS011;56075;51.264;7.150;2023-05-17T08:57:48;9.88;;;2.00;;
20832;SDS011;56075;51.264;7.150;2023-05-17T09:00:20;11.40;;;1.80;;
20832;SDS011;56075;51.264;7.150;2023-05-17T09:02:54;9.02;;;1.80;;
20832;SDS011;56075;51.264;7.150;2023-05-17T09:05:26;10.93;;;1.88;;
20832;SDS011;56075;51.264;7.150;2023-05-17T09:07:58;7.57;;;1.70;;
20832;SDS011;56075;51.264;7.150;2023-05-17T09:10:29;12.07;;;1.92;;
20832;SDS011;56075;51.264;7.150;2023-05-17T09:13:01;7.88;;;1.70;;
20832;SDS011;56075;51.264;7.150;2023-05-17T09:15:32;8.57;;;1.63;;
20832;SDS011;56075;51.264;7.150;2023-05-17T09:18:03;10.88;;;1.75;;
20832;SDS011;56075;51.264;7.150;2023-05-17T09:20:35;7.50;;;1.52;;
20832;SDS011;56075;51.264;7.150;2023-05-17T09:23:07;7.80;;;1.77;;
20832;SDS011;56075;51.264;7.150;2023-05-17T09:25:49;9.57;;;1.70;;
20832;SDS011;56075;51.264;7.150;2023-05-17T09:28:20;8.15;;;1.50;;
20832;SDS011;56075;51.264;7.150;2023-05-17T09:30:51;7.82;;;1.30;;
20832;SDS011;56075;51.264;7.150;2023-05-17T09:33:22;8.02;;;1.42;;
20832;SDS011;56075;51.264;7.150;2023-05-17T09:35:54;4.93;;;1.20;;
20832;SDS011;56075;51.264;7.150;2023-05-17T09:38:25;9.07;;;1.38;;
20832;SDS011;56075;51.264;7.150;2023-05-17T09:40:57;9.82;;;1.23;;
20832;SDS011;56075;51.264;7.150;2023-05-17T09:43:30;11.70;;;1.63;;
20832;SDS011;56075;51.264;7.150;2023-05-17T09:46:01;12.05;;;2.00;;
20832;SDS011;56075;51.264;7.150;2023-05-17T09:48:33;11.25;;;1.63;;
20832;SDS011;56075;51.264;7.150;2023-05-17T09:51:08;10.18;;;1.63;;
20832;SDS011;56075;51.264;7.150;2023-05-17T09:53:39;9.98;;;1.70;;
20832;SDS011;56075;51.264;7.150;2023-05-17T09:56:11;10.10;;;1.90;;
20832;SDS011;56075;51.264;7.150;2023-05-17T09:58:43;8.70;;;1.60;;
20832;SDS011;56075;51.264;7.150;2023-05-17T10:01:15;10.70;;;2.08;;
20832;SDS011;56075;51.264;7.150;2023-05-17T10:03:47;7.32;;;1.80;;
20832;SDS011;56075;51.264;7.150;2023-05-17T10:06:21;11.57;;;1.70;;
20832;SDS011;56075;51.264;7.150;2023-05-17T10:08:54;8.32;;;1.88;;
20832;SDS011;56075;51.264;7.150;2023-05-17T10:11:27;8.00;;;1.90;;
20832;SDS011;56075;51.264;7.150;2023-05-17T10:14:08;7.47;;;1.67;;
20832;SDS011;56075;51.264;7.150;2023-05-17T10:16:48;8.10;;;1.60;;
20832;SDS011;56075;51.264;7.150;2023-05-17T10:19:20;11.98;;;1.52;;
20832;SDS011;56075;51.264;7.150;2023-05-17T10:21:52;7.78;;;1.90;;
20832;SDS011;56075;51.264;7.150;2023-05-17T10:24:26;6.50;;;1.50;;
20832;SDS011;56075;51.264;7.150;2023-05-17T10:27:00;9.25;;;1.73;;
20832;SDS011;56075;51.264;7.150;2023-05-17T10:29:32;6.90;;;1.75;;
20832;SDS011;56075;51.264;7.150;2023-05-17T10:32:06;7.50;;;1.48;;
20832;SDS011;56075;51.264;7.150;2023-05-17T10:34:38;7.72;;;1.83;;
20832;SDS011;56075;51.264;7.150;2023-05-17T10:37:10;7.22;;;1.50;;
20832;SDS011;56075;51.264;7.150;2023-05-17T10:39:43;7.90;;;1.70;;
20832;SDS011;56075;51.264;7.150;2023-05-17T10:42:16;7.30;;;1.50;;
20832;SDS011;56075;51.264;7.150;2023-05-17T10:44:48;8.02;;;1.98;;
20832;SDS011;56075;51.264;7.150;2023-05-17T10:47:20;8.15;;;1.67;;
20832;SDS011;56075;51.264;7.150;2023-05-17T10:49:51;15.32;;;2.17;;
20832;SDS011;56075;51.264;7.150;2023-05-17T10:52:23;9.30;;;1.70;;
20832;SDS011;56075;51.264;7.150;2023-05-17T10:54:55;7.93;;;1.60;;
20832;SDS011;56075;51.264;7.150;2023-05-17T10:57:35;10.30;;;1.90;;
20832;SDS011;56075;51.264;7.150;2023-05-17T11:00:08;8.93;;;1.80;;
20832;SDS011;56075;51.264;7.150;2023-05-17T11:02:48;6.82;;;1.63;;
20832;SDS011;56075;51.264;7.150;2023-05-17T11:05:24;6.60;;;1.67;;
20832;SDS011;56075;51.264;7.150;2023-05-17T11:08:15;8.18;;;1.80;;
20832;SDS011;56075;51.264;7.150;2023-05-17T11:16:26;6.57;;;1.85;;
20832;SDS011;56075;51.264;7.150;2023-05-17T11:19:05;7.95;;;1.90;;
20832;SDS011;56075;51.264;7.150;2023-05-17T11:21:44;5.85;;;1.58;;
20832;SDS011;56075;51.264;7.150;2023-05-17T11:24:18;7.55;;;1.77;;
20832;SDS011;56075;51.264;7.150;2023-05-17T11:26:57;6.85;;;1.55;;
20832;SDS011;56075;51.264;7.150;2023-05-17T11:29:29;6.75;;;1.58;;
20832;SDS011;56075;51.264;7.150;2023-05-17T11:32:04;5.10;;;1.40;;
20832;SDS011;56075;51.264;7.150;2023-05-17T11:34:38;5.57;;;1.70;;
20832;SDS011;56075;51.264;7.150;2023-05-17T11:37:09;7.55;;;1.77;;
20832;SDS011;56075;51.264;7.150;2023-05-17T11:39:59;8.98;;;1.70;;
20832;SDS011;56075;51.264;7.150;2023-05-17T11:42:33;10.57;;;1.83;;
20832;SDS011;56075;51.264;7.150;2023-05-17T11:45:08;6.13;;;1.40;;
20832;SDS011;56075;51.264;7.150;2023-05-17T11:47:39;8.73;;;1.63;;
20832;SDS011;56075;51.264;7.150;2023-05-17T11:50:11;8.13;;;2.05;;
20832;SDS011;56075;51.264;7.150;2023-05-17T11:52:43;5.30;;;1.70;;
20832;SDS011;56075;51.264;7.150;2023-05-17T11:55:15;7.57;;;1.67;;
20832;SDS011;56075;51.264;7.150;2023-05-17T11:57:47;5.85;;;1.70;;
20832;SDS011;56075;51.264;7.150;2023-05-17T12:00:18;4.97;;;1.85;;
20832;SDS011;56075;51.264;7.150;2023-05-17T12:02:57;4.75;;;1.70;;
20832;SDS011;56075;51.264;7.150;2023-05-17T12:05:28;9.57;;;1.58;;
20832;SDS011;56075;51.264;7.150;2023-05-17T12:07:59;6.88;;;1.50;;
20832;SDS011;56075;51.264;7.150;2023-05-17T12:10:30;8.90;;;1.90;;
20832;SDS011;56075;51.264;7.150;2023-05-17T12:13:02;4.55;;;1.70;;
20832;SDS011;56075;51.264;7.150;2023-05-17T12:15:34;7.07;;;1.55;;
20832;SDS011;56075;51.264;7.150;2023-05-17T12:18:05;9.40;;;1.70;;
20832;SDS011;56075;51.264;7.150;2023-05-17T12:20:36;6.65;;;1.70;;
20832;SDS011;56075;51.264;7.150;2023-05-17T12:23:08;6.28;;;1.92;;
20832;SDS011;56075;51.264;7.150;2023-05-17T12:25:40;6.05;;;1.88;;
20832;SDS011;56075;51.264;7.150;2023-05-17T12:28:11;9.30;;;2.05;;
20832;SDS011;56075;51.264;7.150;2023-05-17T12:30:44;4.90;;;1.67;;
20832;SDS011;56075;51.264;7.150;2023-05-17T12:33:16;6.68;;;1.70;;
20832;SDS011;56075;51.264;7.150;2023-05-17T12:35:47;7.95;;;1.77;;
20832;SDS011;56075;51.264;7.150;2023-05-17T12:38:19;7.72;;;2.33;;
20832;SDS011;56075;51.264;7.150;2023-05-17T12:40:50;11.25;;;2.53;;
20832;SDS011;56075;51.264;7.150;2023-05-17T12:43:22;9.07;;;1.83;;
20832;SDS011;56075;51.264;7.150;2023-05-17T12:45:55;5.80;;;1.70;;
20832;SDS011;56075;51.264;7.150;2023-05-17T12:48:33;10.10;;;2.10;;
20832;SDS011;56075;51.264;7.150;2023-05-17T12:51:06;9.65;;;1.95;;
20832;SDS011;56075;51.264;7.150;2023-05-17T12:53:47;5.65;;;1.80;;
20832;SDS011;56075;51.264;7.150;2023-05-17T12:56:27;5.07;;;1.75;;
20832;SDS011;56075;51.264;7.150;2023-05-17T12:59:12;7.00;;;1.95;;
20832;SDS011;56075;51.264;7.150;2023-05-17T13:01:48;8.45;;;1.88;;
20832;SDS011;56075;51.264;7.150;2023-05-17T13:04:31;7.35;;;1.80;;
20832;SDS011;56075;51.264;7.150;2023-05-17T13:07:03;5.57;;;1.85;;
20832;SDS011;56075;51.264;7.150;2023-05-17T13:09:43;6.78;;;1.98;;
20832;SDS011;56075;51.264;7.150;2023-05-17T13:12:18;4.57;;;2.00;;
20832;SDS011;56075;51.264;7.150;2023-05-17T13:14:52;5.18;;;1.88;;
20832;SDS011;56075;51.264;7.150;2023-05-17T13:17:25;7.22;;;2.20;;
20832;SDS011;56075;51.264;7.150;2023-05-17T13:20:03;7.80;;;1.80;;
20832;SDS011;56075;51.264;7.150;2023-05-17T13:22:55;6.70;;;1.73;;
20832;SDS011;56075;51.264;7.150;2023-05-17T13:25:27;4.63;;;2.13;;
20832;SDS011;56075;51.264;7.150;2023-05-17T13:27:58;6.63;;;1.77;;
20832;SDS011;56075;51.264;7.150;2023-05-17T13:30:29;7.28;;;1.95;;
20832;SDS011;56075;51.264;7.150;2023-05-17T13:33:00;6.40;;;1.65;;
20832;SDS011;56075;51.264;7.150;2023-05-17T13:35:31;10.35;;;1.90;;
20832;SDS011;56075;51.264;7.150;2023-05-17T13:38:02;8.10;;;2.00;;
20832;SDS011;56075;51.264;7.150;2023-05-17T13:40:33;6.68;;;1.73;;
20832;SDS011;56075;51.264;7.150;2023-05-17T13:43:05;3.83;;;1.60;;
20832;SDS011;56075;51.264;7.150;2023-05-17T13:45:38;7.32;;;1.90;;
20832;SDS011;56075;51.264;7.150;2023-05-17T13:48:09;5.38;;;1.77;;
20832;SDS011;56075;51.264;7.150;2023-05-17T13:50:40;6.20;;;1.80;;
20832;SDS011;56075;51.264;7.150;2023-05-17T13:53:11;7.80;;;2.25;;
20832;SDS011;56075;51.264;7.150;2023-05-17T13:55:43;3.88;;;2.15;;
20832;SDS011;56075;51.264;7.150;2023-05-17T13:58:14;3.42;;;1.63;;
20832;SDS011;56075;51.264;7.150;2023-05-17T14:00:46;5.00;;;1.92;;
20832;SDS011;56075;51.264;7.150;2023-05-17T14:03:18;7.05;;;2.10;;
20832;SDS011;56075;51.264;7.150;2023-05-17T14:05:49;4.50;;;1.77;;
20832;SDS011;56075;51.264;7.150;2023-05-17T14:08:22;6.45;;;1.98;;
20832;SDS011;56075;51.264;7.150;2023-05-17T14:10:53;7.68;;;2.10;;
20832;SDS011;56075;51.264;7.150;2023-05-17T14:13:24;7.55;;;2.20;;
20832;SDS011;56075;51.264;7.150;2023-05-17T14:15:56;10.65;;;1.90;;
20832;SDS011;56075;51.264;7.150;2023-05-17T14:18:27;9.52;;;1.98;;
20832;SDS011;56075;51.264;7.150;2023-05-17T14:21:00;7.85;;;1.85;;
20832;SDS011;56075;51.264;7.150;2023-05-17T14:23:33;6.72;;;2.40;;
20832;SDS011;56075;51.264;7.150;2023-05-17T14:26:04;7.68;;;2.40;;
20832;SDS011;56075;51.264;7.150;2023-05-17T14:28:38;6.18;;;1.80;;
20832;SDS011;56075;51.264;7.150;2023-05-17T14:31:10;8.73;;;3.00;;
20832;SDS011;56075;51.264;7.150;2023-05-17T14:33:41;8.52;;;1.92;;
20832;SDS011;56075;51.264;7.150;2023-05-17T14:36:12;7.75;;;1.88;;
20832;SDS011;56075;51.264;7.150;2023-05-17T14:38:43;8.50;;;1.67;;
20832;SDS011;56075;51.264;7.150;2023-05-17T14:41:14;10.27;;;1.80;;
20832;SDS011;56075;51.264;7.150;2023-05-17T14:43:46;6.85;;;1.55;;
20832;SDS011;56075;51.264;7.150;2023-05-17T14:46:18;6.63;;;1.77;;
20832;SDS011;56075;51.264;7.150;2023-05-17T14:48:49;8.35;;;2.00;;
20832;SDS011;56075;51.264;7.150;2023-05-17T14:51:22;6.68;;;2.20;;
20832;SDS011;56075;51.264;7.150;2023-05-17T14:53:53;5.32;;;1.98;;
20832;SDS011;56075;51.264;7.150;2023-05-17T14:56:24;7.32;;;1.88;;
20832;SDS011;56075;51.264;7.150;2023-05-17T14:58:56;4.75;;;1.35;;
20832;SDS011;56075;51.264;7.150;2023-05-17T15:01:27;6.97;;;1.60;;
20832;SDS011;56075;51.264;7.150;2023-05-17T15:03:58;7.97;;;1.70;;
20832;SDS011;56075;51.264;7.150;2023-05-17T15:06:30;5.88;;;1.55;;
20832;SDS011;56075;51.264;7.150;2023-05-17T15:09:01;8.50;;;1.95;;
20832;SDS011;56075;51.264;7.150;2023-05-17T15:11:33;8.93;;;2.17;;
20832;SDS011;56075;51.264;7.150;2023-05-17T15:14:04;5.60;;;2.03;;
20832;SDS011;56075;51.264;7.150;2023-05-17T15:16:36;5.50;;;1.73;;
20832;SDS011;56075;51.264;7.150;2023-05-17T15:19:07;5.43;;;1.73;;
20832;SDS011;56075;51.264;7.150;2023-05-17T15:21:39;5.75;;;1.50;;
20832;SDS011;56075;51.264;7.150;2023-05-17T15:24:10;5.43;;;1.60;;
20832;SDS011;56075;51.264;7.150;2023-05-17T15:26:41;8.57;;;1.60;;
20832;SDS011;56075;51.264;7.150;2023-05-17T15:29:13;12.60;;;1.35;;
20832;SDS011;56075;51.264;7.150;2023-05-17T15:31:45;7.43;;;1.63;;
20832;SDS011;56075;51.264;7.150;2023-05-17T15:34:16;5.63;;;1.50;;